Time;durP1;ratioP1;P1;durP2;ratioP2;P2;SDS_P1;SDS_P2;PMS_P1;PMS_P2;Temp;Humidity;BMP_temperature;BMP_pressure;BME280_temperature;BME280_humidity;BME280_pressure;Samples;Min_cycle;Max_cycle;Signal;HPM_P1;HPM_P2
2021/08/30 00:01:05;;;;;;;20.77;17.70;;;16.70;98.30;;;;;;4084177;29;20470;-82
2021/08/30 00:03:09;;;;;;;20.93;15.73;;;16.70;98.30;;;;;;4086248;29;20828;-82
2021/08/30 00:05:13;;;;;;;22.60;17.93;;;16.70;98.30;;;;;;4085341;28;20474;-83
2021/08/30 00:07:16;;;;;;;25.87;19.53;;;16.70;98.30;;;;;;4088835;29;20563;-82
2021/08/30 00:09:19;;;;;;;21.17;17.00;;;16.70;98.30;;;;;;4083777;28;20474;-82
2021/08/30 00:11:22;;;;;;;22.40;17.20;;;16.70;98.30;;;;;;4092561;29;20495;-82
2021/08/30 00:13:25;;;;;;;25.37;17.73;;;16.70;98.30;;;;;;4130230;28;20544;-84
2021/08/30 00:15:28;;;;;;;24.43;17.43;;;16.60;98.30;;;;;;4098024;28;20608;-82
2021/08/30 00:17:32;;;;;;;25.20;18.50;;;16.60;98.30;;;;;;4093043;29;20968;-82
2021/08/30 00:19:36;;;;;;;26.83;18.97;;;16.70;98.30;;;;;;4086598;28;20468;-83
2021/08/30 00:21:38;;;;;;;22.07;18.27;;;16.70;98.30;;;;;;4088566;28;20466;-82
2021/08/30 00:23:41;;;;;;;22.30;17.17;;;16.70;98.30;;;;;;4091720;29;21227;-82
2021/08/30 00:25:45;;;;;;;25.10;17.83;;;16.70;98.30;;;;;;4075664;29;20470;-82
2021/08/30 00:27:48;;;;;;;22.03;16.90;;;16.70;98.30;;;;;;4082422;29;20484;-82
2021/08/30 00:29:51;;;;;;;20.90;17.57;;;16.70;98.30;;;;;;4084255;29;20480;-82
2021/08/30 00:31:54;;;;;;;22.77;16.97;;;16.70;98.30;;;;;;4085942;28;21424;-82
2021/08/30 00:33:58;;;;;;;22.40;17.53;;;16.70;98.30;;;;;;4084775;28;21045;-82
2021/08/30 00:36:01;;;;;;;24.60;19.43;;;16.80;98.30;;;;;;4088286;29;20486;-82
2021/08/30 00:38:04;;;;;;;21.63;16.63;;;16.80;98.30;;;;;;4092796;28;20479;-82
2021/08/30 00:40:09;;;;;;;19.20;17.20;;;16.80;98.30;;;;;;4069170;28;20467;-82
2021/08/30 00:42:12;;;;;;;20.83;16.47;;;16.80;98.30;;;;;;4080149;29;20521;-82
2021/08/30 00:44:15;;;;;;;21.73;17.20;;;16.80;98.30;;;;;;4091092;28;20497;-82
2021/08/30 00:46:18;;;;;;;27.17;17.80;;;16.80;98.30;;;;;;4093662;29;20589;-82
2021/08/30 00:48:21;;;;;;;17.97;15.83;;;16.80;98.30;;;;;;4081645;28;20908;-82
2021/08/30 00:50:26;;;;;;;21.43;15.87;;;16.80;98.30;;;;;;4086586;29;20484;-82
2021/08/30 00:52:29;;;;;;;19.57;16.60;;;16.80;98.30;;;;;;4093031;28;20473;-82
2021/08/30 00:54:32;;;;;;;29.53;17.00;;;16.80;98.30;;;;;;4081208;28;20586;-82
2021/08/30 00:56:35;;;;;;;21.57;17.33;;;16.70;98.30;;;;;;4082051;29;20473;-82
2021/08/30 00:58:40;;;;;;;20.50;15.70;;;16.70;98.30;;;;;;4084465;28;20479;-82
2021/08/30 01:00:43;;;;;;;22.67;16.60;;;16.70;98.30;;;;;;4090858;28;20466;-82
2021/08/30 01:02:47;;;;;;;24.10;16.00;;;16.70;98.30;;;;;;4124899;28;20879;-82
2021/08/30 01:04:51;;;;;;;17.80;15.90;;;16.70;98.30;;;;;;4086685;28;20560;-82
2021/08/30 01:07:00;;;;;;;20.33;17.80;;;16.70;98.30;;;;;;4090263;28;20834;-82
2021/08/30 01:09:07;;;;;;;26.07;17.20;;;16.70;98.30;;;;;;4090352;28;20497;-82
2021/08/30 01:11:15;;;;;;;18.10;16.20;;;16.70;98.30;;;;;;4076362;28;20478;-82
2021/08/30 01:13:24;;;;;;;67.73;51.20;;;16.70;98.30;;;;;;4082664;28;20465;-82
2021/08/30 01:15:32;;;;;;;109.27;78.83;;;16.70;98.30;;;;;;4087573;28;20472;-82
2021/08/30 01:17:37;;;;;;;33.17;27.67;;;16.70;98.30;;;;;;4079634;28;20473;-82
2021/08/30 01:19:49;;;;;;;25.63;18.70;;;16.70;98.30;;;;;;4084543;29;21056;-82
2021/08/30 01:21:54;;;;;;;23.20;18.60;;;16.80;98.30;;;;;;4081911;29;20550;-82
2021/08/30 01:24:00;;;;;;;18.20;16.30;;;16.80;98.30;;;;;;4087595;29;20928;-82
2021/08/30 01:26:06;;;;;;;22.30;17.57;;;16.80;98.30;;;;;;4094034;28;20464;-84
2021/08/30 01:28:10;;;;;;;21.47;16.90;;;16.80;98.30;;;;;;4105134;29;20536;-84
2021/08/30 01:30:18;;;;;;;18.63;14.90;;;16.80;98.30;;;;;;4103172;28;20466;-82
2021/08/30 01:32:29;;;;;;;20.17;16.30;;;16.80;98.30;;;;;;4104831;29;20502;-83
2021/08/30 01:34:33;;;;;;;20.73;16.70;;;16.80;98.30;;;;;;4102243;28;20505;-83
2021/08/30 01:36:38;;;;;;;21.37;16.37;;;16.80;98.30;;;;;;4100863;29;21061;-82
2021/08/30 01:38:45;;;;;;;20.27;17.30;;;16.80;98.30;;;;;;4101748;28;20470;-82
2021/08/30 01:40:48;;;;;;;16.97;15.13;;;16.80;98.30;;;;;;4088632;29;20497;-83
2021/08/30 01:42:54;;;;;;;18.37;16.10;;;16.80;98.30;;;;;;4091940;28;20469;-83
2021/08/30 01:44:58;;;;;;;18.80;15.70;;;16.80;98.30;;;;;;4097494;28;21132;-82
2021/08/30 01:47:02;;;;;;;17.57;15.50;;;16.80;98.30;;;;;;4082071;29;20478;-82
2021/08/30 01:49:09;;;;;;;20.23;16.30;;;16.80;98.30;;;;;;4094656;29;20498;-84
2021/08/30 01:51:12;;;;;;;29.37;16.20;;;16.80;98.30;;;;;;4090510;28;20482;-82
2021/08/30 01:53:16;;;;;;;17.80;15.90;;;16.80;98.30;;;;;;4092131;29;20478;-82
2021/08/30 01:55:30;;;;;;;18.07;15.97;;;16.80;98.30;;;;;;4091422;28;20548;-82
2021/08/30 01:57:43;;;;;;;19.60;16.30;;;16.80;98.30;;;;;;4092980;28;20470;-83
2021/08/30 02:02:09;;;;;;;20.10;14.80;;;16.80;98.30;;;;;;4089181;28;20546;-83
2021/08/30 02:04:14;;;;;;;16.00;14.30;;;16.80;98.30;;;;;;4082879;29;20498;-82
2021/08/30 02:06:17;;;;;;;19.80;14.40;;;16.80;98.30;;;;;;4085314;29;20505;-83
2021/08/30 02:08:22;;;;;;;19.37;17.23;;;16.80;98.30;;;;;;4078864;29;20506;-82
2021/08/30 02:10:25;;;;;;;20.40;15.97;;;16.80;98.30;;;;;;4091637;28;20990;-82
2021/08/30 02:12:28;;;;;;;19.77;15.30;;;16.80;98.30;;;;;;4097219;28;20490;-83
2021/08/30 02:14:31;;;;;;;18.37;16.03;;;16.80;98.30;;;;;;4096083;28;20494;-82
2021/08/30 02:16:34;;;;;;;19.13;15.37;;;16.80;98.30;;;;;;4086095;28;20481;-82
2021/08/30 02:18:40;;;;;;;18.70;16.70;;;16.80;98.30;;;;;;4092574;28;20878;-82
2021/08/30 02:20:53;;;;;;;19.20;15.63;;;16.80;98.30;;;;;;4091894;29;21007;-82
2021/08/30 02:22:59;;;;;;;18.10;15.50;;;16.80;98.30;;;;;;4087221;28;20470;-83
2021/08/30 02:25:05;;;;;;;18.43;15.30;;;16.80;98.30;;;;;;4087752;29;20494;-82
2021/08/30 02:27:15;;;;;;;17.53;15.50;;;16.80;98.30;;;;;;4087742;29;20466;-83
2021/08/30 02:29:22;;;;;;;18.27;14.70;;;16.80;98.30;;;;;;4091393;28;20468;-82
2021/08/30 02:31:26;;;;;;;19.43;17.30;;;16.80;98.30;;;;;;4090520;29;20571;-82
2021/08/30 02:33:30;;;;;;;19.20;15.50;;;16.80;98.30;;;;;;4089049;28;20555;-83
2021/08/30 02:35:36;;;;;;;17.97;15.93;;;16.80;98.30;;;;;;4091452;28;20482;-82
2021/08/30 02:37:43;;;;;;;22.30;16.03;;;16.80;98.30;;;;;;4081667;29;20482;-83
2021/08/30 02:39:49;;;;;;;22.37;15.53;;;16.90;98.30;;;;;;4074418;29;20569;-82
2021/08/30 02:41:52;;;;;;;24.43;16.73;;;16.80;98.30;;;;;;4085587;28;20466;-83
2021/08/30 02:43:57;;;;;;;19.13;15.03;;;16.80;98.30;;;;;;4117213;28;20494;-82
2021/08/30 02:46:00;;;;;;;19.53;15.20;;;16.90;98.30;;;;;;4088398;28;20570;-83
2021/08/30 02:48:05;;;;;;;16.90;15.10;;;16.90;98.30;;;;;;4078292;29;21042;-82
2021/08/30 02:50:10;;;;;;;18.97;15.83;;;16.80;98.30;;;;;;4088221;29;20473;-82
2021/08/30 02:52:15;;;;;;;18.03;15.50;;;16.80;98.30;;;;;;4085272;28;20854;-82
2021/08/30 02:54:20;;;;;;;18.73;15.00;;;16.80;98.30;;;;;;4088678;28;20573;-82
2021/08/30 02:56:24;;;;;;;24.00;15.30;;;16.80;98.30;;;;;;4082897;29;20476;-83
2021/08/30 02:58:28;;;;;;;22.13;16.50;;;16.80;98.30;;;;;;4073848;28;20470;-82
2021/08/30 03:00:31;;;;;;;20.80;16.37;;;16.80;98.30;;;;;;4089855;29;20476;-82
2021/08/30 03:02:37;;;;;;;19.53;15.53;;;16.80;98.30;;;;;;4089871;28;20465;-82
2021/08/30 03:04:40;;;;;;;21.63;15.57;;;16.80;98.30;;;;;;4088658;28;21037;-83
2021/08/30 03:06:44;;;;;;;23.07;18.60;;;16.70;98.30;;;;;;4083498;29;20568;-82
2021/08/30 03:08:47;;;;;;;23.40;18.60;;;16.70;98.30;;;;;;4090082;28;20478;-82
2021/08/30 03:10:54;;;;;;;20.70;16.63;;;16.80;98.30;;;;;;4092481;29;20482;-83
2021/08/30 03:13:03;;;;;;;21.00;15.63;;;16.70;98.30;;;;;;4089060;28;20509;-82
2021/08/30 03:15:08;;;;;;;17.23;14.57;;;16.70;98.30;;;;;;4094083;28;20552;-82
2021/08/30 03:17:13;;;;;;;18.17;15.27;;;16.70;98.30;;;;;;4088687;28;20473;-82
2021/08/30 03:19:17;;;;;;;17.43;14.83;;;16.70;98.30;;;;;;4092597;28;20478;-82
2021/08/30 03:21:21;;;;;;;22.20;17.40;;;16.70;98.30;;;;;;4083566;28;20585;-82
2021/08/30 03:23:26;;;;;;;20.53;16.10;;;16.70;98.30;;;;;;4089401;29;20532;-82
2021/08/30 03:25:32;;;;;;;18.40;15.80;;;16.70;98.30;;;;;;4092055;29;20477;-82
2021/08/30 03:27:37;;;;;;;18.27;15.77;;;16.70;98.30;;;;;;4077599;29;20983;-82
2021/08/30 03:29:41;;;;;;;18.13;15.20;;;16.70;98.30;;;;;;4081208;29;20474;-83
2021/08/30 03:31:44;;;;;;;18.30;15.13;;;16.70;98.30;;;;;;4088555;28;20733;-82
2021/08/30 03:33:49;;;;;;;20.70;16.50;;;16.70;98.30;;;;;;4068956;28;20551;-83
2021/08/30 03:35:53;;;;;;;26.87;15.73;;;16.70;98.30;;;;;;4079438;28;20585;-82
2021/08/30 03:37:57;;;;;;;21.00;15.60;;;16.70;98.30;;;;;;4083994;28;20915;-83
2021/08/30 03:40:01;;;;;;;20.30;16.27;;;16.70;98.30;;;;;;4077461;28;20468;-82
2021/08/30 03:42:05;;;;;;;21.67;16.47;;;16.70;98.30;;;;;;4086361;29;20469;-83
2021/08/30 03:44:10;;;;;;;27.83;18.40;;;16.70;98.30;;;;;;4097178;28;20564;-82
2021/08/30 03:46:14;;;;;;;19.97;16.40;;;16.70;98.30;;;;;;4091855;28;20469;-83
2021/08/30 03:48:19;;;;;;;18.93;16.33;;;16.70;98.30;;;;;;4084792;29;20842;-82
2021/08/30 03:50:22;;;;;;;21.07;16.77;;;16.70;98.30;;;;;;4082729;29;20474;-82
2021/08/30 03:52:26;;;;;;;26.87;20.80;;;16.70;98.30;;;;;;4078036;28;20493;-82
2021/08/30 03:54:30;;;;;;;40.37;31.00;;;16.70;98.30;;;;;;4091206;29;20501;-82
2021/08/30 03:56:33;;;;;;;44.03;30.53;;;16.70;98.30;;;;;;4086319;28;20474;-82
2021/08/30 03:58:38;;;;;;;25.30;21.57;;;16.70;98.30;;;;;;4086829;29;20482;-82
2021/08/30 04:00:43;;;;;;;25.43;19.30;;;16.70;98.30;;;;;;4089254;28;20474;-82
2021/08/30 04:02:48;;;;;;;21.87;17.93;;;16.70;98.30;;;;;;4076001;28;20466;-83
2021/08/30 04:04:52;;;;;;;24.97;19.20;;;16.70;98.30;;;;;;4079728;29;20939;-82
2021/08/30 04:06:57;;;;;;;21.00;16.70;;;16.70;98.30;;;;;;4079881;28;20474;-83
2021/08/30 04:09:01;;;;;;;19.90;17.43;;;16.70;98.30;;;;;;4072613;29;20569;-83
2021/08/30 04:11:05;;;;;;;23.20;17.97;;;16.70;98.30;;;;;;4082166;28;20843;-83
2021/08/30 04:13:09;;;;;;;23.20;17.53;;;16.70;98.30;;;;;;4112227;28;20492;-82
2021/08/30 04:15:12;;;;;;;23.40;18.33;;;16.70;98.30;;;;;;4097944;28;20503;-82
2021/08/30 04:17:17;;;;;;;25.57;17.70;;;16.60;98.30;;;;;;4076375;29;20486;-82
2021/08/30 04:19:20;;;;;;;21.27;16.90;;;16.60;98.30;;;;;;4076355;29;20903;-83
2021/08/30 04:21:23;;;;;;;23.33;18.00;;;16.60;98.30;;;;;;4071963;29;20958;-82
2021/08/30 04:23:26;;;;;;;21.27;17.40;;;16.60;98.30;;;;;;4089544;28;20864;-82
2021/08/30 04:25:29;;;;;;;21.37;17.93;;;16.70;98.30;;;;;;4088252;28;20502;-82
2021/08/30 04:27:32;;;;;;;21.50;18.87;;;16.60;98.30;;;;;;4088273;29;20473;-83
2021/08/30 04:29:35;;;;;;;22.87;18.27;;;16.60;98.30;;;;;;4089076;28;20827;-83
2021/08/30 04:31:38;;;;;;;21.40;17.97;;;16.60;98.30;;;;;;4094570;29;20476;-83
2021/08/30 04:33:42;;;;;;;21.27;16.70;;;16.60;98.30;;;;;;4086727;28;20838;-82
2021/08/30 04:35:45;;;;;;;24.97;18.50;;;16.70;98.30;;;;;;4086777;29;20560;-82
2021/08/30 04:37:49;;;;;;;22.00;17.27;;;16.60;98.30;;;;;;4082253;28;20474;-81
2021/08/30 04:39:52;;;;;;;22.10;18.20;;;16.60;98.30;;;;;;4093651;28;20477;-82
2021/08/30 04:41:55;;;;;;;23.73;18.10;;;16.60;98.30;;;;;;4081303;29;20966;-82
2021/08/30 04:43:59;;;;;;;21.30;17.80;;;16.60;98.30;;;;;;4095177;28;20564;-83
2021/08/30 04:46:03;;;;;;;25.07;18.73;;;16.60;98.30;;;;;;4136253;28;20558;-82
2021/08/30 04:48:06;;;;;;;23.07;17.27;;;16.60;98.30;;;;;;4085984;29;20949;-82
2021/08/30 04:50:12;;;;;;;23.10;18.10;;;16.70;98.30;;;;;;4088872;29;20545;-82
2021/08/30 04:52:15;;;;;;;22.60;18.67;;;16.60;98.30;;;;;;4093423;28;20477;-82
2021/08/30 04:54:19;;;;;;;22.80;16.70;;;16.60;98.30;;;;;;4084115;28;20580;-82
2021/08/30 04:56:22;;;;;;;23.53;17.60;;;16.70;98.30;;;;;;4088526;28;20499;-82
2021/08/30 04:58:25;;;;;;;23.37;19.13;;;16.60;98.30;;;;;;4101048;28;20483;-82
2021/08/30 05:00:28;;;;;;;24.33;18.03;;;16.60;98.30;;;;;;4102904;28;20529;-82
2021/08/30 05:02:32;;;;;;;21.17;17.53;;;16.70;98.30;;;;;;4102482;28;20454;-82
2021/08/30 05:04:35;;;;;;;22.50;18.10;;;16.70;98.30;;;;;;4101249;28;20728;-82
2021/08/30 05:06:40;;;;;;;23.00;16.60;;;16.60;98.30;;;;;;4102384;29;20461;-82
2021/08/30 05:08:43;;;;;;;24.17;18.33;;;16.70;98.30;;;;;;4101086;28;20577;-81
2021/08/30 05:10:46;;;;;;;19.10;16.90;;;16.70;98.30;;;;;;4089855;29;20548;-81
2021/08/30 05:12:49;;;;;;;22.70;16.87;;;16.70;98.30;;;;;;4083771;28;20470;-81
2021/08/30 05:14:52;;;;;;;26.40;19.20;;;16.70;98.30;;;;;;4096942;28;21170;-82
2021/08/30 05:16:55;;;;;;;27.93;19.40;;;16.70;98.30;;;;;;4092238;28;20561;-82
2021/08/30 05:18:58;;;;;;;21.33;16.70;;;16.70;98.30;;;;;;4093691;28;20478;-82
2021/08/30 05:21:01;;;;;;;20.20;17.93;;;16.80;98.30;;;;;;4091219;28;20478;-82
2021/08/30 05:23:05;;;;;;;24.17;18.67;;;16.80;98.30;;;;;;4091777;28;20477;-82
2021/08/30 05:25:10;;;;;;;20.87;17.80;;;16.80;98.30;;;;;;4090234;29;20512;-81
2021/08/30 05:27:13;;;;;;;41.00;33.03;;;16.80;98.30;;;;;;4092260;28;20516;-82
2021/08/30 05:29:16;;;;;;;72.00;50.20;;;16.80;98.30;;;;;;4071117;29;20475;-82
2021/08/30 05:31:19;;;;;;;58.97;43.43;;;16.90;98.30;;;;;;4086771;29;20525;-82
2021/08/30 05:33:22;;;;;;;38.00;29.70;;;17.00;98.30;;;;;;4086437;29;20497;-82
2021/08/30 05:35:25;;;;;;;28.17;22.73;;;17.00;98.30;;;;;;4327411;23;20521;-83
2021/08/30 05:37:36;;;;;;;23.30;19.60;;;17.10;98.30;;;;;;4093028;28;20470;-83
2021/08/30 06:19:45;;;;;;;21.77;16.93;;;17.40;98.30;;;;;;4097498;28;20475;-84
2021/08/30 06:21:48;;;;;;;21.80;17.97;;;17.40;98.30;;;;;;4096037;28;20467;-84
2021/08/30 06:23:53;;;;;;;23.63;18.17;;;17.30;98.30;;;;;;4081725;29;20469;-82
2021/08/30 06:25:57;;;;;;;19.83;16.80;;;17.40;98.30;;;;;;4092135;29;20499;-84
2021/08/30 06:28:00;;;;;;;19.97;16.00;;;17.40;98.30;;;;;;4095418;29;20477;-83
2021/08/30 06:30:03;;;;;;;18.80;15.10;;;17.40;98.30;;;;;;4084409;29;21258;-83
2021/08/30 06:32:09;;;;;;;20.57;15.63;;;17.40;98.30;;;;;;4086673;29;20470;-83
2021/08/30 06:34:12;;;;;;;19.17;15.50;;;17.50;98.30;;;;;;4092752;29;20501;-83
2021/08/30 06:36:15;;;;;;;17.70;14.03;;;17.60;98.30;;;;;;4086980;28;20508;-83
2021/08/30 06:38:18;;;;;;;20.70;15.53;;;17.60;98.30;;;;;;4091457;28;20883;-83
2021/08/30 06:40:23;;;;;;;21.03;15.63;;;17.70;98.30;;;;;;4081103;29;20477;-83
2021/08/30 06:42:26;;;;;;;16.60;14.70;;;17.70;98.30;;;;;;4090742;29;20477;-83
2021/08/30 06:44:29;;;;;;;17.13;13.67;;;17.80;98.30;;;;;;4092033;28;20470;-84
2021/08/30 06:46:32;;;;;;;17.07;14.70;;;17.90;98.30;;;;;;4094658;28;20473;-83
2021/08/30 06:48:36;;;;;;;16.30;14.60;;;17.90;98.30;;;;;;4076119;29;20476;-83
2021/08/30 06:50:40;;;;;;;18.57;15.33;;;18.00;98.30;;;;;;4093926;29;20945;-83
2021/08/30 06:52:43;;;;;;;16.20;13.47;;;18.00;98.30;;;;;;4077369;29;20477;-84
2021/08/30 06:54:46;;;;;;;16.20;13.23;;;18.20;98.30;;;;;;4091354;29;20504;-83
2021/08/30 06:56:49;;;;;;;18.60;15.30;;;18.30;98.30;;;;;;4081642;29;20474;-84
2021/08/30 06:58:51;;;;;;;15.33;13.10;;;18.30;98.30;;;;;;4081693;29;20466;-84
2021/08/30 07:00:54;;;;;;;17.17;13.73;;;18.30;98.30;;;;;;4094710;29;20473;-83
2021/08/30 07:02:58;;;;;;;16.00;14.00;;;18.30;98.30;;;;;;4097237;28;20508;-83
2021/08/30 07:05:02;;;;;;;15.23;13.63;;;18.30;98.30;;;;;;4097125;28;21000;-83
2021/08/30 07:07:05;;;;;;;14.50;12.97;;;18.30;98.30;;;;;;4078359;28;20835;-84
2021/08/30 07:09:08;;;;;;;15.63;13.10;;;18.40;98.30;;;;;;4095074;28;20484;-83
2021/08/30 07:11:11;;;;;;;17.17;13.43;;;18.40;98.30;;;;;;4090221;29;20488;-83
2021/08/30 07:13:14;;;;;;;15.27;13.70;;;18.50;98.30;;;;;;4090891;29;20484;-84
2021/08/30 07:15:17;;;;;;;14.80;13.23;;;18.50;98.30;;;;;;4086974;29;21001;-83
2021/08/30 07:17:20;;;;;;;12.83;11.10;;;18.60;98.30;;;;;;4087419;29;20482;-83
2021/08/30 07:19:23;;;;;;;13.10;11.80;;;18.70;98.30;;;;;;4081137;29;20489;-84
2021/08/30 07:21:28;;;;;;;12.97;10.77;;;18.80;98.30;;;;;;4081053;29;20482;-83
2021/08/30 07:23:34;;;;;;;12.73;11.43;;;18.80;98.30;;;;;;4086026;29;20570;-84
2021/08/30 07:25:37;;;;;;;12.40;11.07;;;18.80;98.30;;;;;;4080683;29;20598;-83
2021/08/30 07:27:40;;;;;;;13.20;11.07;;;18.70;98.30;;;;;;4064919;29;20517;-83
2021/08/30 07:29:43;;;;;;;12.47;11.10;;;18.70;98.30;;;;;;4089681;29;20489;-83
2021/08/30 07:31:46;;;;;;;22.03;17.60;;;18.70;98.30;;;;;;4084941;29;20882;-83
2021/08/30 07:33:49;;;;;;;47.50;38.43;;;18.70;98.30;;;;;;4087300;29;20475;-83
2021/08/30 07:35:52;;;;;;;18.30;14.73;;;18.70;98.30;;;;;;4089235;28;20592;-83
2021/08/30 07:37:56;;;;;;;14.63;13.10;;;18.70;98.30;;;;;;4082357;29;20478;-84
2021/08/30 07:39:59;;;;;;;11.93;10.73;;;18.70;98.30;;;;;;4093072;29;20948;-83
2021/08/30 07:42:02;;;;;;;12.70;11.40;;;18.70;98.30;;;;;;4090797;28;20489;-83
2021/08/30 07:44:06;;;;;;;11.17;10.17;;;18.70;98.30;;;;;;4097316;28;20477;-84
2021/08/30 07:46:11;;;;;;;11.73;10.57;;;18.70;98.30;;;;;;4095778;28;20481;-84
2021/08/30 07:48:14;;;;;;;15.90;11.30;;;18.70;98.30;;;;;;4077168;29;20476;-84
2021/08/30 07:50:18;;;;;;;11.20;10.10;;;18.70;98.30;;;;;;4093835;29;20477;-83
2021/08/30 07:52:22;;;;;;;12.90;10.30;;;18.80;98.30;;;;;;4082810;28;20485;-83
2021/08/30 07:54:26;;;;;;;22.20;11.30;;;18.80;98.30;;;;;;4064883;29;20463;-84
2021/08/30 07:56:29;;;;;;;13.10;9.67;;;18.80;98.30;;;;;;4082066;29;20480;-83
2021/08/30 07:58:32;;;;;;;17.40;12.53;;;18.90;98.30;;;;;;4083788;29;20964;-84
2021/08/30 08:00:35;;;;;;;21.10;16.73;;;19.00;98.30;;;;;;4078470;29;20485;-83
2021/08/30 08:02:38;;;;;;;14.43;12.90;;;19.10;98.30;;;;;;4090905;29;20963;-83
2021/08/30 08:04:41;;;;;;;11.90;10.80;;;19.10;98.30;;;;;;4096445;29;20497;-84
2021/08/30 08:06:44;;;;;;;14.90;9.80;;;19.10;98.30;;;;;;4088770;29;20468;-83
2021/08/30 08:08:47;;;;;;;11.40;10.20;;;19.10;98.30;;;;;;4091647;29;20476;-83
2021/08/30 08:10:51;;;;;;;12.33;8.83;;;19.20;98.30;;;;;;4092111;29;20967;-84
2021/08/30 08:12:54;;;;;;;11.37;9.17;;;19.20;98.30;;;;;;4095128;28;20473;-83
2021/08/30 08:14:57;;;;;;;10.37;9.27;;;19.30;98.30;;;;;;4097376;29;20505;-83
2021/08/30 08:17:00;;;;;;;12.53;10.30;;;19.20;98.30;;;;;;4089738;28;20517;-83
2021/08/30 08:19:03;;;;;;;10.70;8.87;;;19.20;98.30;;;;;;4084284;29;20456;-83
2021/08/30 08:21:09;;;;;;;9.37;8.47;;;19.00;98.30;;;;;;4099395;29;20544;-83
2021/08/30 08:23:12;;;;;;;12.83;9.03;;;18.90;98.30;;;;;;4086013;29;20461;-83
2021/08/30 08:25:15;;;;;;;9.93;8.90;;;18.80;98.30;;;;;;4109385;28;20523;-83
2021/08/30 08:27:19;;;;;;;9.00;7.83;;;18.80;98.30;;;;;;4110508;28;20467;-83
2021/08/30 08:29:23;;;;;;;10.63;9.53;;;18.70;98.30;;;;;;4097155;28;20462;-83
2021/08/30 08:31:26;;;;;;;9.83;8.93;;;18.70;98.30;;;;;;4096997;29;20469;-83
2021/08/30 08:33:29;;;;;;;9.03;8.13;;;18.60;98.30;;;;;;4096353;28;20475;-83
2021/08/30 08:35:32;;;;;;;14.00;9.77;;;18.70;98.30;;;;;;4094393;29;20525;-83
2021/08/30 08:37:35;;;;;;;8.97;8.17;;;18.70;98.30;;;;;;4090164;29;20476;-83
2021/08/30 08:39:38;;;;;;;11.33;8.93;;;18.70;98.30;;;;;;4088277;29;20484;-83
2021/08/30 08:41:42;;;;;;;10.37;9.13;;;18.70;98.30;;;;;;4098277;28;20477;-83
2021/08/30 08:43:52;;;;;;;9.17;8.33;;;18.80;98.30;;;;;;4082788;29;20466;-82
2021/08/30 08:45:56;;;;;;;10.60;9.60;;;18.90;98.30;;;;;;4088561;29;20492;-83
2021/08/30 08:47:59;;;;;;;9.40;8.07;;;18.80;98.30;;;;;;4093205;29;20988;-83
2021/08/30 08:50:02;;;;;;;10.07;9.07;;;18.90;98.30;;;;;;4088554;28;20469;-83
2021/08/30 08:52:05;;;;;;;9.50;8.60;;;18.90;98.30;;;;;;4090869;29;20474;-83
2021/08/30 08:54:30;;;;;;;9.83;8.90;;;18.90;98.30;;;;;;4083230;29;20567;-83
2021/08/30 08:56:36;;;;;;;8.70;7.90;;;18.90;98.30;;;;;;4089072;29;20539;-83
2021/08/30 08:58:40;;;;;;;8.63;7.83;;;18.90;98.30;;;;;;4083516;29;20516;-83
2021/08/30 09:00:46;;;;;;;8.80;7.90;;;18.80;98.30;;;;;;4095715;28;20523;-83
2021/08/30 09:02:51;;;;;;;8.73;7.83;;;18.80;98.30;;;;;;4095296;29;20476;-83
2021/08/30 09:04:55;;;;;;;10.03;8.50;;;18.70;98.30;;;;;;4093407;28;20585;-83
2021/08/30 09:07:10;;;;;;;8.60;7.50;;;18.70;98.30;;;;;;4097822;28;20910;-83
2021/08/30 09:09:15;;;;;;;8.77;7.70;;;18.70;98.30;;;;;;4085658;29;20462;-83
2021/08/30 09:11:19;;;;;;;8.50;7.60;;;18.70;98.30;;;;;;4098415;29;20557;-83
2021/08/30 09:13:28;;;;;;;8.53;7.30;;;18.60;98.30;;;;;;4077548;29;20502;-83
2021/08/30 09:15:31;;;;;;;8.50;7.70;;;18.50;98.30;;;;;;4075171;29;20498;-83
2021/08/30 09:17:35;;;;;;;9.60;7.90;;;18.50;98.30;;;;;;4082470;28;20969;-83
2021/08/30 09:19:38;;;;;;;9.03;8.13;;;18.50;98.30;;;;;;4081898;29;20462;-83
2021/08/30 09:21:43;;;;;;;7.70;6.90;;;18.60;98.30;;;;;;4090339;29;20852;-83
2021/08/30 09:23:47;;;;;;;9.07;8.17;;;18.50;98.30;;;;;;4083389;29;20482;-83
2021/08/30 09:26:00;;;;;;;10.50;8.67;;;18.50;98.30;;;;;;4066918;29;21201;-83
2021/08/30 09:28:03;;;;;;;8.93;7.77;;;18.50;98.30;;;;;;4066559;29;20825;-83
2021/08/30 09:30:11;;;;;;;9.43;8.33;;;18.50;98.30;;;;;;4087624;29;20468;-83
2021/08/30 09:32:15;;;;;;;9.90;8.77;;;18.50;98.30;;;;;;4087807;29;20516;-84
2021/08/30 09:34:20;;;;;;;8.93;8.03;;;18.50;98.30;;;;;;4090288;29;20485;-83
2021/08/30 09:40:27;;;;;;;;;;;;;;;;;;;;;
2021/08/30 09:43:13;;;;;;;9.43;8.27;;;18.40;98.30;;;;;;4027859;29;20472;-83
2021/08/30 09:46:15;;;;;;;;;;;;;;;;;;;;;
2021/08/30 14:42:31;;;;;;;7.93;7.32;;;28.30;87.50;;;;;;4054365;29;20466;-83
2021/08/30 14:44:52;;;;;;;8.80;7.53;;;27.80;87.80;;;;;;4053712;29;21316;-85
2021/08/30 14:47:15;;;;;;;8.43;7.63;;;27.40;86.60;;;;;;4071635;29;20532;-83
2021/08/30 14:49:31;;;;;;;7.37;6.70;;;26.30;88.80;;;;;;4092340;29;20472;-84
2021/08/30 14:52:10;;;;;;;7.43;6.83;;;25.50;91.00;;;;;;4092118;29;20506;-84
2021/08/30 14:57:38;;;;;;;8.10;7.30;;;24.50;96.00;;;;;;4000255;29;20469;-85
2021/08/30 15:09:06;;;;;;;7.17;6.43;;;25.60;93.30;;;;;;3984182;29;20458;-84
2021/08/30 15:24:14;;;;;;;14.17;12.77;;;26.90;88.40;;;;;;4018224;29;20462;-84
2021/08/30 15:29:37;;;;;;;7.33;6.60;;;25.50;90.50;;;;;;4026894;29;20489;-83
2021/08/30 15:32:09;;;;;;;7.63;6.93;;;24.90;91.80;;;;;;4025317;29;20477;-83
2021/08/30 15:34:33;;;;;;;8.10;7.30;;;24.50;93.40;;;;;;4023556;29;21016;-83
2021/08/30 16:17:45;;;;;;;10.53;9.10;;;20.80;98.30;;;;;;3997986;29;20577;-83
2021/08/30 16:37:32;;;;;;;34.60;24.00;;;20.20;98.30;;;;;;4047251;29;21006;-83
2021/08/30 17:35:08;;;;;;;19.90;13.33;;;19.50;98.30;;;;;;3975252;23;20540;-81
2021/08/30 17:37:12;;;;;;;26.07;20.73;;;19.50;98.30;;;;;;4068450;29;20562;-81
2021/08/30 17:39:29;;;;;;;35.07;27.30;;;19.50;98.30;;;;;;4083825;29;20504;-81
2021/08/30 17:41:42;;;;;;;27.30;22.30;;;19.60;98.30;;;;;;4083648;29;20484;-81
2021/08/30 17:43:49;;;;;;;14.67;11.50;;;19.60;98.30;;;;;;4079494;29;20547;-81
2021/08/30 17:45:57;;;;;;;15.67;11.10;;;19.60;98.30;;;;;;4080504;29;20489;-81
2021/08/30 17:51:32;;;;;;;11.90;9.20;;;19.40;98.30;;;;;;4067483;29;20610;-81
2021/08/30 17:54:27;;;;;;;8.97;8.07;;;19.40;98.30;;;;;;4063162;29;20493;-81
2021/08/30 18:00:43;;;;;;;118.53;78.90;;;19.40;98.30;;;;;;4078620;29;20534;-81
2021/08/30 18:05:54;;;;;;;52.23;36.63;;;19.50;98.30;;;;;;4067972;29;20855;-81
2021/08/30 18:08:01;;;;;;;30.23;22.83;;;19.40;98.30;;;;;;4071176;29;20491;-81
2021/08/30 18:10:12;;;;;;;16.20;12.50;;;19.30;98.30;;;;;;4072258;29;20458;-81
2021/08/30 18:12:20;;;;;;;15.63;13.97;;;19.20;98.30;;;;;;4074221;29;20953;-81
2021/08/30 18:14:28;;;;;;;19.90;15.60;;;19.20;98.30;;;;;;4083552;29;20504;-81
2021/08/30 18:16:37;;;;;;;12.63;11.13;;;19.20;98.30;;;;;;4067497;29;21019;-81
2021/08/30 18:41:04;;;;;;;39.50;29.50;;;19.00;98.30;;;;;;4066590;29;20509;-81
2021/08/30 18:46:38;;;;;;;21.33;17.13;;;18.90;98.30;;;;;;4070351;29;20894;-81
2021/08/30 18:49:10;;;;;;;14.77;11.73;;;18.80;98.30;;;;;;4080367;29;20480;-81
2021/08/30 18:57:52;;;;;;;13.63;10.53;;;18.70;98.30;;;;;;4081519;29;20454;-81
2021/08/30 19:08:51;;;;;;;11.07;9.60;;;18.50;98.30;;;;;;4074512;29;20493;-81
2021/08/30 19:11:10;;;;;;;12.37;10.00;;;18.50;98.30;;;;;;4069591;29;20487;-81
2021/08/30 19:13:20;;;;;;;10.73;9.63;;;18.40;98.30;;;;;;4072324;29;20496;-81
2021/08/30 19:15:27;;;;;;;11.33;8.67;;;18.40;98.30;;;;;;4083892;23;20494;-81
2021/08/30 19:17:32;;;;;;;11.53;9.73;;;18.40;98.30;;;;;;4081618;29;20506;-81
2021/08/30 19:19:41;;;;;;;14.00;12.37;;;18.40;98.30;;;;;;4081745;29;20506;-81
2021/08/30 19:21:50;;;;;;;17.80;14.90;;;18.40;98.30;;;;;;4079779;29;20473;-81
2021/08/30 20:54:12;;;;;;;18.10;14.93;;;17.40;98.30;;;;;;4063458;29;20519;-83
2021/08/30 21:41:45;;;;;;;16.80;13.00;;;16.90;98.30;;;;;;3988587;29;20459;-81
2021/08/30 21:43:48;;;;;;;14.97;12.53;;;16.80;98.30;;;;;;4039921;29;20475;-82
2021/08/30 21:45:52;;;;;;;15.47;12.93;;;16.80;98.30;;;;;;4044938;29;20925;-82
2021/08/30 21:47:55;;;;;;;15.93;13.83;;;16.80;98.30;;;;;;4050612;29;20503;-82
2021/08/30 21:49:58;;;;;;;16.20;14.00;;;16.70;98.30;;;;;;4068194;29;20471;-82
2021/08/30 21:52:03;;;;;;;16.80;14.33;;;16.80;98.30;;;;;;4067521;29;20493;-83
2021/08/30 21:54:07;;;;;;;16.00;13.70;;;16.80;98.30;;;;;;4068803;29;20482;-83